Time;durP1;ratioP1;P1;durP2;ratioP2;P2;SDS_P1;SDS_P2;PMS_P1;PMS_P2;Temp;Humidity;BMP_temperature;BMP_pressure;BME280_temperature;BME280_humidity;BME280_pressure;Samples;Min_cycle;Max_cycle;Signal;HPM_P1;HPM_P2
2023/06/11 00:00:09;;;;;;;;;;;22.30;99.90;22.30;99197.00;;;;336545;28;86065;-89
2023/06/11 00:00:21;;;;;;;;;;;22.30;99.90;22.30;99201.00;;;;338122;28;87156;-87
2023/06/11 00:00:33;;;;;;;;;;;22.30;99.90;22.40;99194.00;;;;335199;29;86096;-89
2023/06/11 00:00:44;;;;;;;;;;;22.30;99.90;22.40;99196.00;;;;337946;28;88114;-89
2023/06/11 00:00:56;;;;;;;;;;;22.30;99.90;22.30;99195.00;;;;337538;28;87018;-89
2023/06/11 00:01:08;;;;;;;;;;;22.30;99.90;22.40;99189.00;;;;339353;28;86712;-89
2023/06/11 00:01:23;;;;;;;;;;;22.30;99.90;22.30;99195.00;;;;336467;28;86826;-88
2023/06/11 00:01:35;;;;;;;;;;;22.30;99.90;22.40;99197.00;;;;337963;28;89974;-89
2023/06/11 00:01:47;;;;;;;;;;;22.30;99.90;22.40;99204.00;;;;336221;28;86044;-89
2023/06/11 00:01:59;;;;;;;;;;;22.30;99.90;22.30;99198.00;;;;336746;28;88209;-87
2023/06/11 00:02:11;;;;;;;;;;;22.30;99.90;22.40;99199.00;;;;336255;28;87958;-89
2023/06/11 00:02:24;;;;;;;;;;;22.30;99.90;22.30;99203.00;;;;336479;28;89886;-88
2023/06/11 00:02:39;;;;;;;;;;;22.30;99.90;22.30;99197.00;;;;337530;28;86886;-89
2023/06/11 00:02:54;;;;;;;;;;;22.30;99.90;22.30;99204.00;;;;336663;28;88731;-89
2023/06/11 00:03:06;;;;;;;;;;;22.30;99.90;22.40;99193.00;;;;336449;28;87021;-87
2023/06/11 00:03:21;;;;;;;;;;;22.30;99.90;22.50;99201.00;;;;336689;28;89468;-89
2023/06/11 00:03:33;;;;;;;;;;;22.30;99.90;22.50;99203.00;;;;337502;28;87105;-90
2023/06/11 00:03:52;;;;;;;;;;;22.30;99.90;22.40;99200.00;;;;338060;28;90701;-88
2023/06/11 00:04:05;;;;;;;;;;;22.30;99.90;22.30;99201.00;;;;337720;28;86346;-89
2023/06/11 00:04:25;;;;;;;;;;;22.30;99.90;22.30;99201.00;;;;336787;28;87743;-89
2023/06/11 00:04:37;;;;;;;;;;;22.30;99.90;22.40;99195.00;;;;337866;28;86816;-89
2023/06/11 00:04:50;;;;;;;;;;;22.30;99.90;22.40;99202.00;;;;336768;28;87083;-89
2023/06/11 00:05:07;;;;;;;;;;;22.30;99.90;22.40;99209.00;;;;336202;28;86807;-88
2023/06/11 00:05:21;;;;;;;;;;;22.30;99.90;22.30;99203.00;;;;340644;28;91124;-88
2023/06/11 00:05:32;;;;;;;;;;;22.30;99.90;22.40;99193.00;;;;337495;28;87122;-89
2023/06/11 00:05:45;;;;;;;;;;;22.30;99.90;22.50;99202.00;;;;336532;28;89746;-89
2023/06/11 00:05:57;;;;;;;;;;;22.30;99.90;22.40;99196.00;;;;335211;29;85905;-89
2023/06/11 00:06:09;;;;;;;;;;;22.30;99.90;22.40;99204.00;;;;339070;28;89797;-89
2023/06/11 00:06:22;;;;;;;;;;;22.30;99.90;22.30;99205.00;;;;337948;28;86262;-89
2023/06/11 00:06:34;;;;;;;;;;;22.30;99.90;22.30;99199.00;;;;338088;28;86456;-89
2023/06/11 00:06:46;;;;;;;;;;;22.30;99.90;22.40;99205.00;;;;337743;28;87071;-89
2023/06/11 00:06:59;;;;;;;;;;;22.30;99.90;22.40;99202.00;;;;340709;28;87833;-89
2023/06/11 00:07:11;;;;;;;;;;;22.30;99.90;22.40;99204.00;;;;339226;28;86752;-89
2023/06/11 00:07:23;;;;;;;;;;;22.30;99.90;22.40;99207.00;;;;336473;28;88862;-90
2023/06/11 00:07:38;;;;;;;;;;;22.30;99.90;22.30;99209.00;;;;337586;28;87023;-89
2023/06/11 00:07:50;;;;;;;;;;;22.30;99.90;22.40;99201.00;;;;340407;28;89978;-89
2023/06/11 00:08:02;;;;;;;;;;;22.30;99.90;22.30;99202.00;;;;337520;28;86992;-89
2023/06/11 00:08:14;;;;;;;;;;;22.30;99.90;22.30;99197.00;;;;340736;28;86420;-89
2023/06/11 00:08:26;;;;;;;;;;;22.20;99.90;22.30;99205.00;;;;340503;28;85312;-89
2023/06/11 00:08:38;;;;;;;;;;;22.20;99.90;22.30;99201.00;;;;336778;28;87392;-89
2023/06/11 00:08:51;;;;;;;;;;;22.20;99.90;22.30;99200.00;;;;338805;28;87682;-88
2023/06/11 00:09:03;;;;;;;;;;;22.20;99.90;22.30;99193.00;;;;335449;29;88145;-88
2023/06/11 00:09:15;;;;;;;;;;;22.20;99.90;22.40;99203.00;;;;339039;28;86850;-89
2023/06/11 00:09:27;;;;;;;;;;;22.20;99.90;22.50;99201.00;;;;339459;28;87005;-89
2023/06/11 00:09:39;;;;;;;;;;;22.20;99.90;22.50;99209.00;;;;336624;28;86819;-89
2023/06/11 00:09:52;;;;;;;;;;;22.30;99.90;22.50;99206.00;;;;339344;28;88213;-90
2023/06/11 00:10:05;;;;;;;;;;;22.30;99.90;22.50;99203.00;;;;337799;28;86653;-89
2023/06/11 00:10:17;;;;;;;;;;;22.30;99.90;22.40;99205.00;;;;336670;28;89893;-89
2023/06/11 00:10:29;;;;;;;;;;;22.30;99.90;22.40;99207.00;;;;340246;28;86311;-89
2023/06/11 00:10:40;;;;;;;;;;;22.30;99.90;22.40;99200.00;;;;340596;28;88574;-89
2023/06/11 00:10:52;;;;;;;;;;;22.30;99.90;22.50;99195.00;;;;339026;28;86271;-89
2023/06/11 00:11:04;;;;;;;;;;;22.30;99.90;22.40;99203.00;;;;339297;28;90058;-89
2023/06/11 00:11:16;;;;;;;;;;;22.30;99.90;22.40;99200.00;;;;335195;29;87709;-89
2023/06/11 00:11:28;;;;;;;;;;;22.30;99.90;22.40;99210.00;;;;336636;28;88871;-90
2023/06/11 00:11:41;;;;;;;;;;;22.30;99.90;22.40;99207.00;;;;338937;28;86938;-90
2023/06/11 00:11:53;;;;;;;;;;;22.30;99.90;22.40;99196.00;;;;337851;28;91325;-89
2023/06/11 00:12:06;;;;;;;;;;;22.30;99.90;22.50;99207.00;;;;336372;28;87028;-90
2023/06/11 00:12:18;;;;;;;;;;;22.30;99.90;22.50;99206.00;;;;339328;28;91141;-89
2023/06/11 00:12:32;;;;;;;;;;;22.30;99.90;22.40;99205.00;;;;337735;28;86143;-89
2023/06/11 00:12:44;;;;;;;;;;;22.30;99.90;22.50;99207.00;;;;335338;29;89050;-89
2023/06/11 00:12:56;;;;;;;;;;;22.30;99.90;22.50;99209.00;;;;336506;28;87119;-90
2023/06/11 00:13:08;;;;;;;;;;;22.30;99.90;22.50;99204.00;;;;337996;28;90773;-90
2023/06/11 00:13:20;;;;;;;;;;;22.30;99.90;22.50;99203.00;;;;337657;28;88169;-89
2023/06/11 00:13:31;;;;;;;;;;;22.30;99.90;22.50;99211.00;;;;335469;29;89967;-90
2023/06/11 00:13:43;;;;;;;;;;;22.30;99.90;22.40;99201.00;;;;337789;28;86976;-90
2023/06/11 00:13:55;;;;;;;;;;;22.30;99.90;22.40;99200.00;;;;337988;28;90673;-90
2023/06/11 00:14:10;;;;;;;;;;;22.30;99.90;22.40;99200.00;;;;334935;29;86483;-89
2023/06/11 00:14:22;;;;;;;;;;;22.30;99.90;22.50;99206.00;;;;340825;28;88143;-89
2023/06/11 00:14:34;;;;;;;;;;;22.30;99.90;22.50;99204.00;;;;339158;28;86617;-89
2023/06/11 00:14:46;;;;;;;;;;;22.30;99.90;22.50;99196.00;;;;340734;28;87836;-94
2023/06/11 00:15:01;;;;;;;;;;;22.30;99.90;22.50;99205.00;;;;336418;28;87119;-92
2023/06/11 00:15:13;;;;;;;;;;;22.30;99.90;22.50;99209.00;;;;338373;28;88822;-92
2023/06/11 00:15:25;;;;;;;;;;;22.30;99.90;22.30;99206.00;;;;339256;28;87019;-90
2023/06/11 00:15:37;;;;;;;;;;;22.40;99.90;22.30;99206.00;;;;339575;28;87085;-91
2023/06/11 00:15:49;;;;;;;;;;;22.30;99.90;22.30;99203.00;;;;337910;28;86186;-92
2023/06/11 00:16:01;;;;;;;;;;;22.30;99.90;22.20;99209.00;;;;340949;28;87572;-92
2023/06/11 00:16:13;;;;;;;;;;;22.30;99.90;22.20;99200.00;;;;337820;28;87004;-91
2023/06/11 00:16:25;;;;;;;;;;;22.30;99.90;22.20;99202.00;;;;338056;28;88898;-92
2023/06/11 00:16:37;;;;;;;;;;;22.30;99.90;22.20;99194.00;;;;340408;28;86331;-93
2023/06/11 00:16:50;;;;;;;;;;;22.30;99.90;22.20;99202.00;;;;340561;28;89269;-90
2023/06/11 00:17:02;;;;;;;;;;;22.30;99.90;22.30;99208.00;;;;335085;29;87089;-91
2023/06/11 00:17:14;;;;;;;;;;;22.20;99.90;22.30;99204.00;;;;336848;28;88878;-92
2023/06/11 00:17:26;;;;;;;;;;;22.20;99.90;22.30;99198.00;;;;338979;28;88375;-92
2023/06/11 00:17:38;;;;;;;;;;;22.20;99.90;22.20;99207.00;;;;336821;28;88821;-91
2023/06/11 00:17:50;;;;;;;;;;;22.20;99.90;22.10;99203.00;;;;337872;28;86957;-91
2023/06/11 00:18:02;;;;;;;;;;;22.20;99.90;22.10;99202.00;;;;336674;28;90632;-90
2023/06/11 00:18:14;;;;;;;;;;;22.20;99.90;22.20;99204.00;;;;341745;28;86189;-91
2023/06/11 00:20:51;;;;;;;;;;;22.20;99.90;22.30;99197.00;;;;382811;23;89488;-92
2023/06/11 00:21:03;;;;;;;;;;;22.20;99.90;22.20;99204.00;;;;340112;28;89080;-92
2023/06/11 00:21:15;;;;;;;;;;;22.20;99.90;22.30;99198.00;;;;340199;28;87909;-92
2023/06/11 00:21:28;;;;;;;;;;;22.20;99.90;22.20;99204.00;;;;336721;28;89572;-92
2023/06/11 00:21:43;;;;;;;;;;;22.20;99.90;22.30;99196.00;;;;339336;28;87372;-92
2023/06/11 00:21:56;;;;;;;;;;;22.20;99.90;22.40;99192.00;;;;338175;28;91018;-92
2023/06/11 00:22:08;;;;;;;;;;;22.20;99.90;22.30;99191.00;;;;336726;28;87210;-91
2023/06/11 00:22:20;;;;;;;;;;;22.20;99.90;22.30;99192.00;;;;338121;28;89514;-92
2023/06/11 00:22:32;;;;;;;;;;;22.20;99.90;22.40;99191.00;;;;338081;28;86949;-92
2023/06/11 00:22:44;;;;;;;;;;;22.20;99.90;22.30;99192.00;;;;339571;28;87287;-91
2023/06/11 00:22:57;;;;;;;;;;;22.20;99.90;22.40;99199.00;;;;340467;28;86990;-92
2023/06/11 00:23:09;;;;;;;;;;;22.20;99.90;22.40;99193.00;;;;336673;28;90175;-92
2023/06/11 00:23:20;;;;;;;;;;;22.20;99.90;22.50;99201.00;;;;335323;29;88414;-92
2023/06/11 00:23:34;;;;;;;;;;;22.20;99.90;22.30;99194.00;;;;339553;28;89900;-92
2023/06/11 00:23:47;;;;;;;;;;;22.20;99.90;22.30;99192.00;;;;339124;28;87784;-93
2023/06/11 00:23:59;;;;;;;;;;;22.20;99.90;22.20;99195.00;;;;336878;28;90344;-92
2023/06/11 00:24:12;;;;;;;;;;;22.20;99.90;22.30;99195.00;;;;339430;28;87610;-92
2023/06/11 00:24:23;;;;;;;;;;;22.20;99.90;22.30;99194.00;;;;336830;28;90287;-92
2023/06/11 00:24:36;;;;;;;;;;;22.20;99.90;22.30;99188.00;;;;340630;28;86963;-92
2023/06/11 00:24:48;;;;;;;;;;;22.20;99.90;22.40;99192.00;;;;340947;28;89692;-93
2023/06/11 00:25:00;;;;;;;;;;;22.20;99.90;22.40;99184.00;;;;339309;28;87187;-92
2023/06/11 00:25:12;;;;;;;;;;;22.20;99.90;22.30;99187.00;;;;340811;28;89580;-93
2023/06/11 00:25:25;;;;;;;;;;;22.20;99.90;22.30;99184.00;;;;338931;28;87147;-92
2023/06/11 00:25:36;;;;;;;;;;;22.20;99.90;22.30;99192.00;;;;338820;28;88637;-91
2023/06/11 00:25:48;;;;;;;;;;;22.20;99.90;22.40;99196.00;;;;339311;28;87714;-92
2023/06/11 00:26:08;;;;;;;;;;;22.20;99.90;22.40;99197.00;;;;336815;28;91074;-92
2023/06/11 00:26:21;;;;;;;;;;;22.20;99.90;22.30;99196.00;;;;337987;28;87053;-92
2023/06/11 00:26:33;;;;;;;;;;;22.20;99.90;22.30;99194.00;;;;339489;28;90157;-92
2023/06/11 00:26:45;;;;;;;;;;;22.20;99.90;22.30;99191.00;;;;337977;28;87806;-92
2023/06/11 00:26:59;;;;;;;;;;;22.20;99.90;22.30;99191.00;;;;338242;28;89851;-92
2023/06/11 00:27:11;;;;;;;;;;;22.20;99.90;22.40;99196.00;;;;339173;28;88499;-92
2023/06/11 00:27:23;;;;;;;;;;;22.20;99.90;22.40;99193.00;;;;338421;28;89895;-92
2023/06/11 00:27:36;;;;;;;;;;;22.20;99.90;22.30;99195.00;;;;339248;28;88418;-92
2023/06/11 00:27:48;;;;;;;;;;;22.20;99.90;22.30;99198.00;;;;336817;28;90119;-92
2023/06/11 00:28:00;;;;;;;;;;;22.20;99.90;22.20;99193.00;;;;338110;28;87139;-92
2023/06/11 00:28:12;;;;;;;;;;;22.20;99.90;22.30;99196.00;;;;338298;28;89324;-93
2023/06/11 00:28:24;;;;;;;;;;;22.20;99.90;22.30;99192.00;;;;339206;28;87778;-92
2023/06/11 00:28:36;;;;;;;;;;;22.20;99.90;22.30;99192.00;;;;339518;28;90726;-92
2023/06/11 00:28:48;;;;;;;;;;;22.20;99.90;22.30;99194.00;;;;339333;28;86978;-93
2023/06/11 00:29:00;;;;;;;;;;;22.20;99.90;22.40;99191.00;;;;338138;28;90029;-92
2023/06/11 00:29:12;;;;;;;;;;;22.20;99.90;22.20;99199.00;;;;339292;28;86986;-93
2023/06/11 00:29:24;;;;;;;;;;;22.20;99.90;22.20;99193.00;;;;337038;28;89707;-92
2023/06/11 00:29:36;;;;;;;;;;;22.20;99.90;22.30;99191.00;;;;336678;28;86205;-92
2023/06/11 00:29:48;;;;;;;;;;;22.20;99.90;22.30;99191.00;;;;338139;28;89540;-92
2023/06/11 00:30:03;;;;;;;;;;;22.20;99.90;22.20;99194.00;;;;337959;28;87082;-92
2023/06/11 00:30:16;;;;;;;;;;;22.20;99.90;22.30;99191.00;;;;338147;28;91172;-92
2023/06/11 00:30:29;;;;;;;;;;;22.20;99.90;22.30;99192.00;;;;337823;28;88101;-92
2023/06/11 00:30:40;;;;;;;;;;;22.20;99.90;22.30;99189.00;;;;336947;28;88408;-93
2023/06/11 00:30:52;;;;;;;;;;;22.20;99.90;22.20;99187.00;;;;339285;28;88227;-92
2023/06/11 00:31:05;;;;;;;;;;;22.20;99.90;22.30;99189.00;;;;338212;28;90067;-93
2023/06/11 00:31:18;;;;;;;;;;;22.20;99.90;22.20;99191.00;;;;339352;28;87028;-92
2023/06/11 00:31:30;;;;;;;;;;;22.20;99.90;22.10;99193.00;;;;336644;28;89705;-93
2023/06/11 00:31:42;;;;;;;;;;;22.20;99.90;22.20;99194.00;;;;337863;28;86953;-91
2023/06/11 00:31:54;;;;;;;;;;;22.20;99.90;22.30;99191.00;;;;338063;28;91090;-92
2023/06/11 00:32:07;;;;;;;;;;;22.20;99.90;22.20;99185.00;;;;335480;29;86050;-92
2023/06/11 00:32:20;;;;;;;;;;;22.20;99.90;22.30;99192.00;;;;336825;28;92054;-93
2023/06/11 00:32:33;;;;;;;;;;;22.20;99.90;22.20;99197.00;;;;335357;28;86840;-92
2023/06/11 00:32:46;;;;;;;;;;;22.20;99.90;22.20;99197.00;;;;335495;29;90760;-92
2023/06/11 00:33:00;;;;;;;;;;;22.20;99.90;22.30;99190.00;;;;339336;28;88589;-93
2023/06/11 00:33:12;;;;;;;;;;;22.20;99.90;22.30;99192.00;;;;336919;28;89837;-92
2023/06/11 00:33:24;;;;;;;;;;;22.20;99.90;22.30;99187.00;;;;335434;29;87188;-92
2023/06/11 00:33:36;;;;;;;;;;;22.10;99.90;22.40;99199.00;;;;334025;29;90784;-93
2023/06/11 00:33:48;;;;;;;;;;;22.20;99.90;22.30;99199.00;;;;337805;28;87222;-93
2023/06/11 00:34:00;;;;;;;;;;;22.20;99.90;22.30;99187.00;;;;338200;28;89067;-93
2023/06/11 00:34:12;;;;;;;;;;;22.20;99.90;22.30;99191.00;;;;335055;28;87372;-93
2023/06/11 00:34:25;;;;;;;;;;;22.20;99.90;22.40;99188.00;;;;339483;28;90249;-94
2023/06/11 00:34:37;;;;;;;;;;;22.20;99.90;22.30;99190.00;;;;339331;28;88028;-93
2023/06/11 00:34:48;;;;;;;;;;;22.20;99.90;22.30;99187.00;;;;338247;28;90432;-92
2023/06/11 00:35:01;;;;;;;;;;;22.20;99.90;22.40;99188.00;;;;340725;28;88093;-93
2023/06/11 00:35:13;;;;;;;;;;;22.20;99.90;22.30;99181.00;;;;338449;28;91041;-93
2023/06/11 00:35:26;;;;;;;;;;;22.20;99.90;22.40;99185.00;;;;338115;28;86120;-93
2023/06/11 00:35:38;;;;;;;;;;;22.20;99.90;22.40;99190.00;;;;335733;28;87133;-93
2023/06/11 00:35:50;;;;;;;;;;;22.20;99.90;22.40;99188.00;;;;336595;28;88251;-92
2023/06/11 00:36:02;;;;;;;;;;;22.20;99.90;22.30;99185.00;;;;335654;29;90781;-93
2023/06/11 00:36:14;;;;;;;;;;;22.20;99.90;22.30;99184.00;;;;336480;28;86189;-93
2023/06/11 00:36:26;;;;;;;;;;;22.20;99.90;22.20;99200.00;;;;338205;28;89907;-94
2023/06/11 00:36:40;;;;;;;;;;;22.20;99.90;22.30;99181.00;;;;339290;28;86969;-92
2023/06/11 00:36:52;;;;;;;;;;;22.20;99.90;22.30;99193.00;;;;337215;28;88938;-93
2023/06/11 00:37:05;;;;;;;;;;;22.20;99.90;22.30;99189.00;;;;337956;28;87129;-93
2023/06/11 00:37:17;;;;;;;;;;;22.20;99.90;22.20;99193.00;;;;339645;28;89391;-93
2023/06/11 00:37:32;;;;;;;;;;;22.20;99.90;22.30;99184.00;;;;337717;28;88691;-93
2023/06/11 00:37:44;;;;;;;;;;;22.20;99.90;22.30;99190.00;;;;335650;29;89755;-93
2023/06/11 00:37:57;;;;;;;;;;;22.20;99.90;22.40;99181.00;;;;338101;28;86916;-93
2023/06/11 00:38:09;;;;;;;;;;;22.20;99.90;22.30;99190.00;;;;339224;28;90926;-93
2023/06/11 00:38:22;;;;;;;;;;;22.20;99.90;22.30;99188.00;;;;341961;28;87877;-94
2023/06/11 00:38:35;;;;;;;;;;;22.20;99.90;22.30;99189.00;;;;338228;28;90974;-93
2023/06/11 00:38:48;;;;;;;;;;;22.20;99.90;22.30;99183.00;;;;337874;28;86197;-92
2023/06/11 00:39:01;;;;;;;;;;;22.20;99.90;22.30;99186.00;;;;338313;28;88982;-93
2023/06/11 00:39:13;;;;;;;;;;;22.20;99.90;22.20;99193.00;;;;339369;28;87665;-93
2023/06/11 00:39:25;;;;;;;;;;;22.20;99.90;22.20;99185.00;;;;338248;28;89665;-91
2023/06/11 00:39:37;;;;;;;;;;;22.20;99.90;22.30;99186.00;;;;337848;28;86513;-92
2023/06/11 00:39:49;;;;;;;;;;;22.20;99.90;22.20;99198.00;;;;335591;29;90837;-94
2023/06/11 00:40:02;;;;;;;;;;;22.20;99.90;22.10;99189.00;;;;337818;28;86981;-93
2023/06/11 00:40:14;;;;;;;;;;;22.20;99.90;22.20;99193.00;;;;339541;28;89078;-93
2023/06/11 00:40:26;;;;;;;;;;;22.10;99.90;22.10;99186.00;;;;337776;28;86213;-93
2023/06/11 00:40:38;;;;;;;;;;;22.10;99.90;22.10;99195.00;;;;335395;29;90723;-93
2023/06/11 00:40:49;;;;;;;;;;;22.10;99.90;22.10;99184.00;;;;339265;28;87471;-92
2023/06/11 00:41:02;;;;;;;;;;;22.10;99.90;22.10;99187.00;;;;338166;28;90436;-92
2023/06/11 00:41:14;;;;;;;;;;;22.10;99.90;22.20;99184.00;;;;335249;29;88104;-94
2023/06/11 00:41:29;;;;;;;;;;;22.10;99.90;22.10;99186.00;;;;335719;29;89515;-92
2023/06/11 00:41:45;;;;;;;;;;;22.10;99.90;22.00;99192.00;;;;335099;29;86983;-93
2023/06/11 00:41:58;;;;;;;;;;;22.10;99.90;22.20;99187.00;;;;336924;28;90092;-92
2023/06/11 00:42:10;;;;;;;;;;;22.10;99.90;22.20;99194.00;;;;336688;28;86835;-92
2023/06/11 00:42:22;;;;;;;;;;;22.10;99.90;22.20;99194.00;;;;336517;28;88457;-92
2023/06/11 00:42:34;;;;;;;;;;;22.10;99.90;22.30;99183.00;;;;339318;28;87034;-92
2023/06/11 00:42:49;;;;;;;;;;;22.10;99.90;22.20;99195.00;;;;340843;28;91135;-92
2023/06/11 00:43:02;;;;;;;;;;;22.10;99.90;22.10;99194.00;;;;340353;28;86323;-92
2023/06/11 00:43:17;;;;;;;;;;;22.10;99.90;22.10;99188.00;;;;339289;28;89072;-92
2023/06/11 00:43:30;;;;;;;;;;;22.10;99.90;22.20;99186.00;;;;339427;28;86879;-93
2023/06/11 00:43:43;;;;;;;;;;;22.10;99.90;22.10;99186.00;;;;336768;28;90126;-93
2023/06/11 00:43:54;;;;;;;;;;;22.10;99.90;22.10;99188.00;;;;336619;28;86658;-93
2023/06/11 00:44:07;;;;;;;;;;;22.10;99.90;22.10;99181.00;;;;336912;28;91004;-91
2023/06/11 00:44:21;;;;;;;;;;;22.10;99.90;22.10;99189.00;;;;336825;28;86771;-92
2023/06/11 00:44:33;;;;;;;;;;;22.10;99.90;22.20;99190.00;;;;337039;28;91013;-92
2023/06/11 00:44:47;;;;;;;;;;;22.10;99.90;22.10;99193.00;;;;336637;28;86767;-92
2023/06/11 00:45:01;;;;;;;;;;;22.10;99.90;22.20;99189.00;;;;336907;28;90690;-92
2023/06/11 00:45:15;;;;;;;;;;;22.10;99.90;22.10;99190.00;;;;336838;28;88133;-93
2023/06/11 00:45:27;;;;;;;;;;;22.10;99.90;22.20;99190.00;;;;335720;29;89690;-92
2023/06/11 00:45:39;;;;;;;;;;;22.10;99.90;22.10;99189.00;;;;335316;29;86932;-92
2023/06/11 00:45:51;;;;;;;;;;;22.10;99.90;22.20;99192.00;;;;336551;28;89561;-92
2023/06/11 00:46:10;;;;;;;;;;;22.10;99.90;22.20;99187.00;;;;337831;28;86150;-92
2023/06/11 00:46:23;;;;;;;;;;;22.10;99.90;22.30;99192.00;;;;335571;29;90808;-93
2023/06/11 00:46:37;;;;;;;;;;;22.10;99.90;22.10;99189.00;;;;337775;28;87949;-92
2023/06/11 00:46:51;;;;;;;;;;;22.10;99.90;22.20;99187.00;;;;336667;28;88527;-92
2023/06/11 00:47:03;;;;;;;;;;;22.10;99.90;22.20;99183.00;;;;336493;28;86992;-92
2023/06/11 00:47:18;;;;;;;;;;;22.10;99.90;22.10;99192.00;;;;339424;28;90429;-92
2023/06/11 00:47:30;;;;;;;;;;;22.10;99.90;22.10;99190.00;;;;337963;28;86244;-92
2023/06/11 00:47:42;;;;;;;;;;;22.10;99.90;22.10;99189.00;;;;336623;28;91221;-92
2023/06/11 00:47:55;;;;;;;;;;;22.10;99.90;22.20;99178.00;;;;335369;29;86956;-92
2023/06/11 00:48:07;;;;;;;;;;;22.10;99.90;22.20;99192.00;;;;335567;29;89986;-92
2023/06/11 00:48:20;;;;;;;;;;;22.10;99.90;22.30;99189.00;;;;336636;28;87283;-92
2023/06/11 00:48:32;;;;;;;;;;;22.10;99.90;22.20;99187.00;;;;334237;29;89879;-93
2023/06/11 00:48:44;;;;;;;;;;;22.10;99.90;22.20;99183.00;;;;333950;29;88161;-92
2023/06/11 00:48:56;;;;;;;;;;;22.10;99.90;22.10;99189.00;;;;335530;29;90877;-92
2023/06/11 00:49:10;;;;;;;;;;;22.10;99.90;22.10;99185.00;;;;336425;28;87097;-92
2023/06/11 00:49:21;;;;;;;;;;;22.10;99.90;22.20;99187.00;;;;335362;29;90736;-91
2023/06/11 00:49:33;;;;;;;;;;;22.10;99.90;22.20;99188.00;;;;336619;28;86272;-91
2023/06/11 00:49:45;;;;;;;;;;;22.10;99.90;22.20;99191.00;;;;336659;28;89179;-92
2023/06/11 00:49:57;;;;;;;;;;;22.10;99.90;22.10;99187.00;;;;335166;29;87813;-91
2023/06/11 00:50:10;;;;;;;;;;;22.10;99.90;22.00;99192.00;;;;334220;29;91163;-91
2023/06/11 00:50:22;;;;;;;;;;;22.10;99.90;22.10;99196.00;;;;335251;29;86914;-91
2023/06/11 00:50:44;;;;;;;;;;;22.10;99.90;22.10;99195.00;;;;336757;28;90886;-92
2023/06/11 00:50:56;;;;;;;;;;;22.10;99.90;22.10;99183.00;;;;337780;28;88036;-91
2023/06/11 00:51:10;;;;;;;;;;;22.10;99.90;22.10;99186.00;;;;337688;28;88983;-92
2023/06/11 00:51:25;;;;;;;;;;;22.00;99.90;22.10;99185.00;;;;336476;28;86819;-91
2023/06/11 00:51:42;;;;;;;;;;;22.10;99.90;22.20;99192.00;;;;339248;28;91057;-92
2023/06/11 00:51:54;;;;;;;;;;;22.10;99.90;22.20;99189.00;;;;339141;28;87993;-91
2023/06/11 00:52:09;;;;;;;;;;;22.10;99.90;22.20;99188.00;;;;339423;28;88956;-91
2023/06/11 00:52:22;;;;;;;;;;;22.10;99.90;22.10;99192.00;;;;336317;28;87015;-91
2023/06/11 00:52:34;;;;;;;;;;;22.00;99.90;22.10;99194.00;;;;337903;28;91063;-93
2023/06/11 00:52:46;;;;;;;;;;;22.00;99.90;22.10;99191.00;;;;336491;28;87007;-92
2023/06/11 00:52:58;;;;;;;;;;;22.00;99.90;22.10;99201.00;;;;338140;28;89730;-92
2023/06/11 00:53:14;;;;;;;;;;;22.00;99.90;22.10;99187.00;;;;336597;28;88580;-92
2023/06/11 00:53:26;;;;;;;;;;;22.00;99.90;22.20;99190.00;;;;338123;28;91132;-92
2023/06/11 00:53:38;;;;;;;;;;;22.00;99.90;22.10;99197.00;;;;336343;28;87699;-92
2023/06/11 00:53:51;;;;;;;;;;;22.00;99.90;22.20;99202.00;;;;338008;28;88861;-93
2023/06/11 00:54:03;;;;;;;;;;;22.00;99.90;22.20;99196.00;;;;336304;28;86926;-91
2023/06/11 00:54:16;;;;;;;;;;;22.00;99.90;22.30;99197.00;;;;336715;28;90175;-92
2023/06/11 00:54:28;;;;;;;;;;;22.10;99.90;22.20;99191.00;;;;337668;28;87110;-92
2023/06/11 00:54:41;;;;;;;;;;;22.00;99.90;22.10;99200.00;;;;333879;29;90093;-91
2023/06/11 00:54:52;;;;;;;;;;;22.10;99.90;22.10;99196.00;;;;336351;28;87659;-91
2023/06/11 00:55:05;;;;;;;;;;;22.10;99.90;22.20;99195.00;;;;336548;28;90166;-92
2023/06/11 00:55:17;;;;;;;;;;;22.10;99.90;22.20;99197.00;;;;337805;28;88701;-92
2023/06/11 00:55:30;;;;;;;;;;;22.10;99.90;22.10;99199.00;;;;340753;28;90961;-91
2023/06/11 00:55:42;;;;;;;;;;;22.10;99.90;22.20;99192.00;;;;334938;29;87246;-92
2023/06/11 00:55:54;;;;;;;;;;;22.10;99.90;22.20;99195.00;;;;335483;29;90912;-92
2023/06/11 00:56:06;;;;;;;;;;;22.10;99.90;22.30;99198.00;;;;336320;28;87054;-92
2023/06/11 00:56:19;;;;;;;;;;;22.10;99.90;22.20;99199.00;;;;338221;28;89848;-92
2023/06/11 00:56:33;;;;;;;;;;;22.10;99.90;22.10;99199.00;;;;336501;28;87079;-92
2023/06/11 00:56:47;;;;;;;;;;;22.10;99.90;22.10;99198.00;;;;337801;28;88978;-92
2023/06/11 00:56:59;;;;;;;;;;;22.10;99.90;22.10;99196.00;;;;336346;28;86959;-91
2023/06/11 00:57:12;;;;;;;;;;;22.10;99.90;22.20;99195.00;;;;339128;28;89949;-92
2023/06/11 00:57:24;;;;;;;;;;;22.10;99.90;22.10;99192.00;;;;336488;28;87017;-92
2023/06/11 00:57:40;;;;;;;;;;;22.10;99.90;22.10;99194.00;;;;338069;28;90432;-92
2023/06/11 00:57:53;;;;;;;;;;;22.10;99.90;22.00;99198.00;;;;336534;28;87290;-92
2023/06/11 00:58:13;;;;;;;;;;;22.10;99.90;22.00;99197.00;;;;334318;29;90662;-92
2023/06/11 00:58:27;;;;;;;;;;;22.00;99.90;22.10;99200.00;;;;336344;28;86619;-92
2023/06/11 00:58:39;;;;;;;;;;;22.00;99.90;22.20;99200.00;;;;335541;29;89146;-91
2023/06/11 00:58:53;;;;;;;;;;;22.00;99.90;22.20;99206.00;;;;337785;28;88027;-91
2023/06/11 00:59:06;;;;;;;;;;;22.10;99.90;22.20;99200.00;;;;337855;28;89997;-92
2023/06/11 00:59:19;;;;;;;;;;;22.10;99.90;22.20;99189.00;;;;337964;28;86865;-92
2023/06/11 00:59:34;;;;;;;;;;;22.10;99.90;22.20;99197.00;;;;335482;29;90798;-92
2023/06/11 00:59:48;;;;;;;;;;;22.10;99.90;22.20;99199.00;;;;336472;28;86913;-92
2023/06/11 01:00:00;;;;;;;;;;;22.10;99.90;22.20;99192.00;;;;337990;28;91076;-92
2023/06/11 01:00:13;;;;;;;;;;;22.10;99.90;22.10;99196.00;;;;336370;28;87058;-92
2023/06/11 01:00:26;;;;;;;;;;;22.10;99.90;22.20;99193.00;;;;338083;28;90634;-92
2023/06/11 01:00:38;;;;;;;;;;;22.10;99.90;22.20;99192.00;;;;336580;28;86853;-92
2023/06/11 01:00:52;;;;;;;;;;;22.10;99.90;22.30;99187.00;;;;334245;29;89615;-92
2023/06/11 01:01:05;;;;;;;;;;;22.10;99.90;22.30;99195.00;;;;337821;28;88184;-91
2023/06/11 01:01:26;;;;;;;;;;;22.10;99.90;22.30;99198.00;;;;336971;28;90100;-92
2023/06/11 01:01:45;;;;;;;;;;;22.10;99.90;22.30;99195.00;;;;336271;28;87156;-92
2023/06/11 01:02:05;;;;;;;;;;;22.10;99.90;22.30;99192.00;;;;338006;28;89774;-93
2023/06/11 01:02:28;;;;;;;;;;;22.10;99.90;22.10;99198.00;;;;335022;29;87171;-93
2023/06/11 01:02:57;;;;;;;;;;;22.10;99.90;22.20;99196.00;;;;336526;28;90143;-92
2023/06/11 01:03:11;;;;;;;;;;;22.10;99.90;22.20;99195.00;;;;336509;28;86892;-92
2023/06/11 01:03:26;;;;;;;;;;;22.10;99.90;22.20;99193.00;;;;336826;28;90856;-93
2023/06/11 01:03:41;;;;;;;;;;;22.10;99.90;22.20;99197.00;;;;336647;28;87518;-93
2023/06/11 01:03:54;;;;;;;;;;;22.10;99.90;22.20;99204.00;;;;336892;28;86482;-93
2023/06/11 01:04:07;;;;;;;;;;;22.10;99.90;22.20;99189.00;;;;337976;28;86641;-92
2023/06/11 01:04:20;;;;;;;;;;;22.10;99.90;22.20;99197.00;;;;336212;28;88821;-93
2023/06/11 01:04:33;;;;;;;;;;;22.10;99.90;22.20;99200.00;;;;333960;29;87850;-93
2023/06/11 01:04:45;;;;;;;;;;;22.10;99.90;22.10;99201.00;;;;335734;29;88562;-92
2023/06/11 01:04:58;;;;;;;;;;;22.10;99.90;22.10;99197.00;;;;334937;29;86963;-93
2023/06/11 01:05:11;;;;;;;;;;;22.10;99.90;22.20;99196.00;;;;337869;28;90096;-92
2023/06/11 01:05:24;;;;;;;;;;;22.10;99.90;22.20;99197.00;;;;337722;28;87046;-93
2023/06/11 01:05:43;;;;;;;;;;;22.10;99.90;22.10;99200.00;;;;336831;28;89555;-92
2023/06/11 01:06:11;;;;;;;;;;;22.10;99.90;22.10;99205.00;;;;336611;28;86878;-93
2023/06/11 01:06:28;;;;;;;;;;;22.10;99.90;22.20;99200.00;;;;336806;28;90160;-92
2023/06/11 01:06:46;;;;;;;;;;;22.10;99.90;22.20;99197.00;;;;336753;28;86972;-93
2023/06/11 01:07:00;;;;;;;;;;;22.10;99.90;22.10;99203.00;;;;335549;29;89479;-93